Terminal Aerodrome Forecast
Issued by NWS Cleveland, OH

Home | Current Version | Previous Version | Graphics & Text | Print | Product List | Glossary Off
Versions: 1 2 3 4 5 6 7 8 9 10 11 12 13 14 15 16 17 18 19 20 21

000
FTUS41 KCLE 271700 RRA
TAFYNG
TAF
KYNG 271742Z 2718/2818 34010KT 5SM -SN BKN015 OVC025
      TEMPO 2718/2722 6SM -SN SCT015 OVC025
     FM280200 34006KT P6SM OVC025
     FM280800 32005KT 5SM BR SCT025=

USA.gov is the U.S. government's official web portal to all federal, state and local government web resources and services.